Cap Aiguades — FMII — position and weather

sailwx.info

Track history (hours):
 
Tides and Currents Weather Stations Pressure Air Temp Water Temp Dewpoint Dewpoint Depression Visibility Wind Speed Wind Dir Waves Ship Positions

Cap Aiguades

Last reported at 2015-Sep-03 16:32 UTC. Time now 2015-Sep-03 17:13 UTC.
Position N 43°24' E 004°59'.

; draft 4.5 m.

Type: Ship. MMSI: 228237800.

Date/timePositionNaut miles runAvg speedWind from/ knotsBaromVisibWave heightAir tempDewpointWater temp
2015-Sep-03 16:32N 43°24' E 004°59'6 5.6
2015-Sep-03 15:27N 43°24' E 004°51'0 0.0
2015-Sep-03 14:27N 43°24' E 004°51'0 0.0
2015-Sep-03 13:30N 43°24' E 004°51'0 0.0
2015-Sep-03 12:03N 43°24' E 004°51'0 0.0
2015-Sep-03 11:33N 43°24' E 004°51'19 9.2
2015-Sep-03 09:33N 43°19' E 005°16'11 2.2
2015-Sep-03 04:33N 43°18' E 005°01'5 5.1
2015-Sep-03 03:31N 43°24' E 004°59'0 0.0
2015-Sep-03 02:31N 43°24' E 004°59'0 0.0
2015-Sep-03 01:31N 43°24' E 004°59'0 0.0
2015-Sep-03 00:31N 43°24' E 004°59'0 0.0
2015-Sep-02 23:31N 43°24' E 004°59'0 0.0
2015-Sep-02 22:31N 43°24' E 004°59'0 0.0
2015-Sep-02 21:31N 43°24' E 004°59'0 0.0
2015-Sep-02 20:31N 43°24' E 004°59'7 6.7
2015-Sep-02 19:29N 43°25' E 004°50'0 0.0
2015-Sep-02 18:05N 43°25' E 004°50'0 0.0
2015-Sep-02 17:29N 43°25' E 004°50'0 0.0
2015-Sep-02 16:18N 43°25' E 004°50'0 0.0
2015-Sep-02 15:18N 43°25' E 004°50'0 0.0
2015-Sep-02 14:33N 43°25' E 004°50'0 0.0
2015-Sep-02 12:14N 43°25' E 004°50'0 0.0
2015-Sep-02 10:27N 43°25' E 004°50'0 0.0
2015-Sep-02 09:26N 43°25' E 004°50'7 7.5
2015-Sep-02 08:31N 43°24' E 004°59'0 0.0
2015-Sep-02 07:31N 43°24' E 004°59'0 0.0
2015-Sep-02 06:31N 43°24' E 004°59'0 0.0
2015-Sep-02 05:31N 43°24' E 004°59'0 0.0
2015-Sep-02 04:31N 43°24' E 004°59'0 0.0
2015-Sep-02 03:31N 43°24' E 004°59'0 0.0
2015-Sep-02 02:31N 43°24' E 004°59'0 0.0
2015-Sep-02 01:31N 43°24' E 004°59'0 0.0
2015-Sep-02 00:31N 43°24' E 004°59'0 0.0
2015-Sep-01 23:31N 43°24' E 004°59'0 0.0
2015-Sep-01 22:31N 43°24' E 004°59'0 0.0
2015-Sep-01 21:31N 43°24' E 004°59'0 0.0
2015-Sep-01 20:31N 43°24' E 004°59'0 0.0
2015-Sep-01 19:31N 43°24' E 004°59'0 0.1
2015-Sep-01 18:33N 43°24' E 004°59'0 0.1
2015-Sep-01 17:33N 43°24' E 004°59'0 0.0
2015-Sep-01 16:31N 43°24' E 004°59'0 0.1
2015-Sep-01 15:33N 43°24' E 004°59'5 1.3
2015-Sep-01 11:21N 43°26' E 004°52'5 6.6
2015-Sep-01 10:31N 43°24' E 004°59'0 0.0
2015-Sep-01 09:31N 43°24' E 004°59'0 0.0
2015-Sep-01 08:31N 43°24' E 004°59'0 0.0
2015-Sep-01 07:31N 43°24' E 004°59'0 0.0
2015-Sep-01 06:31N 43°24' E 004°59'0 0.0
2015-Sep-01 05:31N 43°24' E 004°59'1 0.6
2015-Sep-01 04:33N 43°24' E 004°59'0 0.0
2015-Sep-01 03:33N 43°24' E 004°59'0 0.0
2015-Sep-01 02:33N 43°24' E 004°59'0 0.0
2015-Sep-01 01:33N 43°24' E 004°59'0 0.0
2015-Sep-01 00:33N 43°24' E 004°59'0 0.0
2015-Aug-31 23:33N 43°24' E 004°59'0 0.0
2015-Aug-31 22:33N 43°24' E 004°59'0 0.0
2015-Aug-31 21:33N 43°24' E 004°59'0 0.0
2015-Aug-31 20:33N 43°24' E 004°59'0 0.0
2015-Aug-31 19:33N 43°24' E 004°59'0 0.0
2015-Aug-31 18:33N 43°24' E 004°59'0 0.0
2015-Aug-31 17:33N 43°24' E 004°59'0 0.0
2015-Aug-31 16:33N 43°24' E 004°59'0 0.0
2015-Aug-31 15:33N 43°24' E 004°59'0 0.0
2015-Aug-31 14:33N 43°24' E 004°59'0 0.0
2015-Aug-31 13:33N 43°24' E 004°59'0 0.0
2015-Aug-31 12:33N 43°24' E 004°59'0 0.0
2015-Aug-31 11:33N 43°24' E 004°59'0 0.0
2015-Aug-31 10:33N 43°24' E 004°59'0 0.0
2015-Aug-31 09:33N 43°24' E 004°59'0 0.0
2015-Aug-31 08:33N 43°24' E 004°59'0 0.0
2015-Aug-31 07:33N 43°24' E 004°59'0 0.0
2015-Aug-31 06:33N 43°24' E 004°59'0 0.0
2015-Aug-31 05:33N 43°24' E 004°59'0 0.0
2015-Aug-31 04:33N 43°24' E 004°59'0 0.0
2015-Aug-31 03:33N 43°24' E 004°59'0 0.0
2015-Aug-31 02:30N 43°24' E 004°59'0 0.0
2015-Aug-31 01:33N 43°24' E 004°59'0 0.0
2015-Aug-31 00:33N 43°24' E 004°59'0 0.0
2015-Aug-30 23:33N 43°24' E 004°59'0 0.0
2015-Aug-30 22:33N 43°24' E 004°59'0 0.0
2015-Aug-30 21:33N 43°24' E 004°59'0 0.0
2015-Aug-30 20:33N 43°24' E 004°59'0 0.0
2015-Aug-30 19:30N 43°24' E 004°59'0 0.0
2015-Aug-30 18:33N 43°24' E 004°59'0 0.0
2015-Aug-30 17:33N 43°24' E 004°59'0 0.0
2015-Aug-30 16:33N 43°24' E 004°59'0 0.0
2015-Aug-30 15:33N 43°24' E 004°59'0 0.0
2015-Aug-30 14:33N 43°24' E 004°59'0 0.0
2015-Aug-30 13:33N 43°24' E 004°59'0 0.0
2015-Aug-30 12:33N 43°24' E 004°59'0 0.0
2015-Aug-30 11:33N 43°24' E 004°59'0 0.0
2015-Aug-30 10:30N 43°24' E 004°59'0 0.0
2015-Aug-30 09:33N 43°24' E 004°59'0 0.0
2015-Aug-30 08:33N 43°24' E 004°59'0 0.0
2015-Aug-30 07:33N 43°24' E 004°59'0 0.0
2015-Aug-30 06:33N 43°24' E 004°59'0 0.0
2015-Aug-30 05:33N 43°24' E 004°59'0 0.0
2015-Aug-30 04:33N 43°24' E 004°59'0 0.0
2015-Aug-30 03:33N 43°24' E 004°59'0 0.0
2015-Aug-30 02:33N 43°24' E 004°59'0 0.0
2015-Aug-30 01:33N 43°24' E 004°59'0 0.0
2015-Aug-30 00:33N 43°24' E 004°59'0 0.0
2015-Aug-29 23:33N 43°24' E 004°59'0 0.0
2015-Aug-29 22:33N 43°24' E 004°59'0 0.0
2015-Aug-29 21:33N 43°24' E 004°59'0 0.0
2015-Aug-29 20:33N 43°24' E 004°59'0 0.0
2015-Aug-29 19:33N 43°24' E 004°59'0 0.0
2015-Aug-29 18:33N 43°24' E 004°59'0 0.0
2015-Aug-29 17:33N 43°24' E 004°59'0 0.0
2015-Aug-29 16:33N 43°24' E 004°59'0 0.0
2015-Aug-29 15:33N 43°24' E 004°59'0 0.0
2015-Aug-29 14:33N 43°24' E 004°59'0 0.0
2015-Aug-29 13:33N 43°24' E 004°59'0 0.0
2015-Aug-29 12:33N 43°24' E 004°59'0 0.0
2015-Aug-29 11:33N 43°24' E 004°59'0 0.0
2015-Aug-29 10:33N 43°24' E 004°59'0 0.0
2015-Aug-29 09:33N 43°24' E 004°59'0 0.0
2015-Aug-29 08:33N 43°24' E 004°59'0 0.0
2015-Aug-29 07:33N 43°24' E 004°59'0 0.0
2015-Aug-29 06:33N 43°24' E 004°59'0 0.0
2015-Aug-29 05:33N 43°24' E 004°59'0 0.0
2015-Aug-29 04:33N 43°24' E 004°59'0 0.0
2015-Aug-29 03:33N 43°24' E 004°59'0 0.0
2015-Aug-29 02:33N 43°24' E 004°59'0 0.0
2015-Aug-29 01:33N 43°24' E 004°59'0 0.0
2015-Aug-29 00:33N 43°24' E 004°59'0 0.0
2015-Aug-28 23:33N 43°24' E 004°59'2 2.4
2015-Aug-28 22:34N 43°24' E 004°56'4 3.3
2015-Aug-28 21:17N 43°25' E 004°51'0 0.0
2015-Aug-28 20:26N 43°25' E 004°51'0 0.0
2015-Aug-28 19:32N 43°25' E 004°51'0 0.0
2015-Aug-28 18:29N 43°25' E 004°51'0 0.0
2015-Aug-28 17:32N 43°25' E 004°51'1 0.6
2015-Aug-28 15:33N 43°24' E 004°52'19 9.0
2015-Aug-28 13:30N 43°20' E 005°17'3 1.6
2015-Aug-28 11:26N 43°19' E 005°21'0 0.0
2015-Aug-28 09:32N 43°19' E 005°21'0 0.2
2015-Aug-28 07:20N 43°19' E 005°22'0 0.1
2015-Aug-28 06:14N 43°19' E 005°22'14 7.9
2015-Aug-28 04:28N 43°18' E 005°02'6 6.7
2015-Aug-28 03:32N 43°24' E 004°59'0 0.0
2015-Aug-28 02:32N 43°24' E 004°59'0 0.0
2015-Aug-28 01:32N 43°24' E 004°59'0 0.0
2015-Aug-28 00:32N 43°24' E 004°59'0 0.0
2015-Aug-27 23:32N 43°24' E 004°59'0 0.0
2015-Aug-27 22:32N 43°24' E 004°59'0 0.0
2015-Aug-27 21:32N 43°24' E 004°59'0 0.0
2015-Aug-27 20:32N 43°24' E 004°59'0 0.0
2015-Aug-27 19:32N 43°24' E 004°59'0 0.0
2015-Aug-27 18:32N 43°24' E 004°59'0 0.0
2015-Aug-27 17:32N 43°24' E 004°59'0 0.0
2015-Aug-27 16:32N 43°24' E 004°59'1 1.2
2015-Aug-27 15:33N 43°23' E 004°58'5 2.2
2015-Aug-27 13:11N 43°25' E 004°51'0 0.0
2015-Aug-27 12:32N 43°25' E 004°51'0 0.0
2015-Aug-27 11:11N 43°25' E 004°51'0 0.0
2015-Aug-27 10:29N 43°25' E 004°51'0 0.0
2015-Aug-27 09:23N 43°25' E 004°51'0 0.0
2015-Aug-27 08:17N 43°25' E 004°51'0 0.0
2015-Aug-27 07:29N 43°25' E 004°51'0 0.0
2015-Aug-27 06:32N 43°25' E 004°51'0 0.0
2015-Aug-27 05:11N 43°25' E 004°51'4 6.2
2015-Aug-27 04:33N 43°24' E 004°56'2 2.5
2015-Aug-27 03:33N 43°24' E 004°59'0 0.0
2015-Aug-27 02:33N 43°24' E 004°59'0 0.0
2015-Aug-27 01:33N 43°24' E 004°59'0 0.0
2015-Aug-27 00:33N 43°24' E 004°59'0 0.0
2015-Aug-26 23:33N 43°24' E 004°59'0 0.0
2015-Aug-26 22:33N 43°24' E 004°59'0 0.0
2015-Aug-26 21:33N 43°24' E 004°59'0 0.0
2015-Aug-26 20:30N 43°24' E 004°59'0 0.0
2015-Aug-26 19:33N 43°24' E 004°59'0 0.0
2015-Aug-26 18:31N 43°24' E 004°59'0 0.0
2015-Aug-26 17:32N 43°24' E 004°59'0 0.0
2015-Aug-26 16:32N 43°24' E 004°59'1 0.5
2015-Aug-26 15:32N 43°24' E 004°59'0 0.0
2015-Aug-26 14:33N 43°24' E 004°59'0 0.0
2015-Aug-26 13:33N 43°24' E 004°59'0 0.0
2015-Aug-26 12:33N 43°24' E 004°59'0 0.0
2015-Aug-26 11:33N 43°24' E 004°59'0 0.0
2015-Aug-26 10:33N 43°24' E 004°59'0 0.0
2015-Aug-26 09:33N 43°24' E 004°59'0 0.0
2015-Aug-26 08:33N 43°24' E 004°59'0 0.0
2015-Aug-26 07:33N 43°24' E 004°59'0 0.0
2015-Aug-26 06:33N 43°24' E 004°59'0 0.0
2015-Aug-26 05:33N 43°24' E 004°59'0 0.0
2015-Aug-26 04:33N 43°24' E 004°59'0 0.0
2015-Aug-26 03:33N 43°24' E 004°59'0 0.0
2015-Aug-26 02:33N 43°24' E 004°59'0 0.0
2015-Aug-26 01:33N 43°24' E 004°59'0 0.0
2015-Aug-26 00:33N 43°24' E 004°59'0 0.0
2015-Aug-25 23:33N 43°24' E 004°59'0 0.0
2015-Aug-25 22:33N 43°24' E 004°59'0 0.0
2015-Aug-25 21:33N 43°24' E 004°59'0 0.0
2015-Aug-25 20:33N 43°24' E 004°59'0 0.0
2015-Aug-25 19:33N 43°24' E 004°59'0 0.0
2015-Aug-25 18:33N 43°24' E 004°59'0 0.0
2015-Aug-25 17:33N 43°24' E 004°59'0 0.0
2015-Aug-25 16:33N 43°24' E 004°59'0 0.0
2015-Aug-25 15:33N 43°24' E 004°59'0 0.0
2015-Aug-25 14:33N 43°24' E 004°59'0 0.0
2015-Aug-25 13:30N 43°24' E 004°59'0 0.0
2015-Aug-25 12:33N 43°24' E 004°59'0 0.0
2015-Aug-25 11:33N 43°24' E 004°59'0 0.0
2015-Aug-25 10:33N 43°24' E 004°59'0 0.0
2015-Aug-25 09:33N 43°24' E 004°59'0 0.0
2015-Aug-25 08:33N 43°24' E 004°59'0 0.0
2015-Aug-25 07:33N 43°24' E 004°59'0 0.0
2015-Aug-25 06:33N 43°24' E 004°59'0 0.0
2015-Aug-25 05:33N 43°24' E 004°59'0 0.0
2015-Aug-25 04:33N 43°24' E 004°59'0 0.0
2015-Aug-25 03:33N 43°24' E 004°59'0 0.0
2015-Aug-25 02:33N 43°24' E 004°59'0 0.0
2015-Aug-25 01:33N 43°24' E 004°59'0 0.0
2015-Aug-25 00:33N 43°24' E 004°59'0 0.0
2015-Aug-24 23:33N 43°24' E 004°59'0 0.0
2015-Aug-24 22:33N 43°24' E 004°59'0 0.0
2015-Aug-24 21:33N 43°24' E 004°59'0 0.0
2015-Aug-24 20:33N 43°24' E 004°59'0 0.0
2015-Aug-24 19:33N 43°24' E 004°59'0 0.0
2015-Aug-24 18:33N 43°24' E 004°59'0 0.0
2015-Aug-24 17:32N 43°24' E 004°59'0 0.0
2015-Aug-24 16:33N 43°24' E 004°59'  
Track history (hours):
 
Tides and Currents Weather Stations Pressure Air Temp Water Temp Dewpoint Dewpoint Depression Visibility Wind Speed Wind Dir Waves Ship Positions

Cap Aiguades

Last reported at 2015-Sep-03 16:32 UTC. Time now 2015-Sep-03 17:13 UTC.
Position N 43°24' E 004°59'.

; draft 4.5 m.

Type: Ship. MMSI: 228237800.

Date/timePositionNaut miles runAvg speedWind from/ knotsBaromVisibWave heightAir tempDewpointWater temp
2015-Sep-03 16:32N 43°24' E 004°59'6 5.6
2015-Sep-03 15:27N 43°24' E 004°51'0 0.0
2015-Sep-03 14:27N 43°24' E 004°51'0 0.0
2015-Sep-03 13:30N 43°24' E 004°51'0 0.0
2015-Sep-03 12:03N 43°24' E 004°51'0 0.0
2015-Sep-03 11:33N 43°24' E 004°51'19 9.2
2015-Sep-03 09:33N 43°19' E 005°16'11 2.2
2015-Sep-03 04:33N 43°18' E 005°01'5 5.1
2015-Sep-03 03:31N 43°24' E 004°59'0 0.0
2015-Sep-03 02:31N 43°24' E 004°59'0 0.0
2015-Sep-03 01:31N 43°24' E 004°59'0 0.0
2015-Sep-03 00:31N 43°24' E 004°59'0 0.0
2015-Sep-02 23:31N 43°24' E 004°59'0 0.0
2015-Sep-02 22:31N 43°24' E 004°59'0 0.0
2015-Sep-02 21:31N 43°24' E 004°59'0 0.0
2015-Sep-02 20:31N 43°24' E 004°59'7 6.7
2015-Sep-02 19:29N 43°25' E 004°50'0 0.0
2015-Sep-02 18:05N 43°25' E 004°50'0 0.0
2015-Sep-02 17:29N 43°25' E 004°50'0 0.0
2015-Sep-02 16:18N 43°25' E 004°50'0 0.0
2015-Sep-02 15:18N 43°25' E 004°50'0 0.0
2015-Sep-02 14:33N 43°25' E 004°50'0 0.0
2015-Sep-02 12:14N 43°25' E 004°50'0 0.0
2015-Sep-02 10:27N 43°25' E 004°50'0 0.0
2015-Sep-02 09:26N 43°25' E 004°50'7 7.5
2015-Sep-02 08:31N 43°24' E 004°59'0 0.0
2015-Sep-02 07:31N 43°24' E 004°59'0 0.0
2015-Sep-02 06:31N 43°24' E 004°59'0 0.0
2015-Sep-02 05:31N 43°24' E 004°59'0 0.0
2015-Sep-02 04:31N 43°24' E 004°59'0 0.0
2015-Sep-02 03:31N 43°24' E 004°59'0 0.0
2015-Sep-02 02:31N 43°24' E 004°59'0 0.0
2015-Sep-02 01:31N 43°24' E 004°59'0 0.0
2015-Sep-02 00:31N 43°24' E 004°59'0 0.0
2015-Sep-01 23:31N 43°24' E 004°59'0 0.0
2015-Sep-01 22:31N 43°24' E 004°59'0 0.0
2015-Sep-01 21:31N 43°24' E 004°59'0 0.0
2015-Sep-01 20:31N 43°24' E 004°59'0 0.0
2015-Sep-01 19:31N 43°24' E 004°59'0 0.1
2015-Sep-01 18:33N 43°24' E 004°59'0 0.1
2015-Sep-01 17:33N 43°24' E 004°59'0 0.0
2015-Sep-01 16:31N 43°24' E 004°59'0 0.1
2015-Sep-01 15:33N 43°24' E 004°59'5 1.3
2015-Sep-01 11:21N 43°26' E 004°52'5 6.6
2015-Sep-01 10:31N 43°24' E 004°59'0 0.0
2015-Sep-01 09:31N 43°24' E 004°59'0 0.0
2015-Sep-01 08:31N 43°24' E 004°59'0 0.0
2015-Sep-01 07:31N 43°24' E 004°59'0 0.0
2015-Sep-01 06:31N 43°24' E 004°59'0 0.0
2015-Sep-01 05:31N 43°24' E 004°59'1 0.6
2015-Sep-01 04:33N 43°24' E 004°59'0 0.0
2015-Sep-01 03:33N 43°24' E 004°59'0 0.0
2015-Sep-01 02:33N 43°24' E 004°59'0 0.0
2015-Sep-01 01:33N 43°24' E 004°59'0 0.0
2015-Sep-01 00:33N 43°24' E 004°59'0 0.0
2015-Aug-31 23:33N 43°24' E 004°59'0 0.0
2015-Aug-31 22:33N 43°24' E 004°59'0 0.0
2015-Aug-31 21:33N 43°24' E 004°59'0 0.0
2015-Aug-31 20:33N 43°24' E 004°59'0 0.0
2015-Aug-31 19:33N 43°24' E 004°59'0 0.0
2015-Aug-31 18:33N 43°24' E 004°59'0 0.0
2015-Aug-31 17:33N 43°24' E 004°59'0 0.0
2015-Aug-31 16:33N 43°24' E 004°59'0 0.0
2015-Aug-31 15:33N 43°24' E 004°59'0 0.0
2015-Aug-31 14:33N 43°24' E 004°59'0 0.0
2015-Aug-31 13:33N 43°24' E 004°59'0 0.0
2015-Aug-31 12:33N 43°24' E 004°59'0 0.0
2015-Aug-31 11:33N 43°24' E 004°59'0 0.0
2015-Aug-31 10:33N 43°24' E 004°59'0 0.0
2015-Aug-31 09:33N 43°24' E 004°59'0 0.0
2015-Aug-31 08:33N 43°24' E 004°59'0 0.0
2015-Aug-31 07:33N 43°24' E 004°59'0 0.0
2015-Aug-31 06:33N 43°24' E 004°59'0 0.0
2015-Aug-31 05:33N 43°24' E 004°59'0 0.0
2015-Aug-31 04:33N 43°24' E 004°59'0 0.0
2015-Aug-31 03:33N 43°24' E 004°59'0 0.0
2015-Aug-31 02:30N 43°24' E 004°59'0 0.0
2015-Aug-31 01:33N 43°24' E 004°59'0 0.0
2015-Aug-31 00:33N 43°24' E 004°59'0 0.0
2015-Aug-30 23:33N 43°24' E 004°59'0 0.0
2015-Aug-30 22:33N 43°24' E 004°59'0 0.0
2015-Aug-30 21:33N 43°24' E 004°59'0 0.0
2015-Aug-30 20:33N 43°24' E 004°59'0 0.0
2015-Aug-30 19:30N 43°24' E 004°59'0 0.0
2015-Aug-30 18:33N 43°24' E 004°59'0 0.0
2015-Aug-30 17:33N 43°24' E 004°59'0 0.0
2015-Aug-30 16:33N 43°24' E 004°59'0 0.0
2015-Aug-30 15:33N 43°24' E 004°59'0 0.0
2015-Aug-30 14:33N 43°24' E 004°59'0 0.0
2015-Aug-30 13:33N 43°24' E 004°59'0 0.0
2015-Aug-30 12:33N 43°24' E 004°59'0 0.0
2015-Aug-30 11:33N 43°24' E 004°59'0 0.0
2015-Aug-30 10:30N 43°24' E 004°59'0 0.0
2015-Aug-30 09:33N 43°24' E 004°59'0 0.0
2015-Aug-30 08:33N 43°24' E 004°59'0 0.0
2015-Aug-30 07:33N 43°24' E 004°59'0 0.0
2015-Aug-30 06:33N 43°24' E 004°59'0 0.0
2015-Aug-30 05:33N 43°24' E 004°59'0 0.0
2015-Aug-30 04:33N 43°24' E 004°59'0 0.0
2015-Aug-30 03:33N 43°24' E 004°59'0 0.0
2015-Aug-30 02:33N 43°24' E 004°59'0 0.0
2015-Aug-30 01:33N 43°24' E 004°59'0 0.0
2015-Aug-30 00:33N 43°24' E 004°59'0 0.0
2015-Aug-29 23:33N 43°24' E 004°59'0 0.0
2015-Aug-29 22:33N 43°24' E 004°59'0 0.0
2015-Aug-29 21:33N 43°24' E 004°59'0 0.0
2015-Aug-29 20:33N 43°24' E 004°59'0 0.0
2015-Aug-29 19:33N 43°24' E 004°59'0 0.0
2015-Aug-29 18:33N 43°24' E 004°59'0 0.0
2015-Aug-29 17:33N 43°24' E 004°59'0 0.0
2015-Aug-29 16:33N 43°24' E 004°59'0 0.0
2015-Aug-29 15:33N 43°24' E 004°59'0 0.0
2015-Aug-29 14:33N 43°24' E 004°59'0 0.0
2015-Aug-29 13:33N 43°24' E 004°59'0 0.0
2015-Aug-29 12:33N 43°24' E 004°59'0 0.0
2015-Aug-29 11:33N 43°24' E 004°59'0 0.0
2015-Aug-29 10:33N 43°24' E 004°59'0 0.0
2015-Aug-29 09:33N 43°24' E 004°59'0 0.0
2015-Aug-29 08:33N 43°24' E 004°59'0 0.0
2015-Aug-29 07:33N 43°24' E 004°59'0 0.0
2015-Aug-29 06:33N 43°24' E 004°59'0 0.0
2015-Aug-29 05:33N 43°24' E 004°59'0 0.0
2015-Aug-29 04:33N 43°24' E 004°59'0 0.0
2015-Aug-29 03:33N 43°24' E 004°59'0 0.0
2015-Aug-29 02:33N 43°24' E 004°59'0 0.0
2015-Aug-29 01:33N 43°24' E 004°59'0 0.0
2015-Aug-29 00:33N 43°24' E 004°59'0 0.0
2015-Aug-28 23:33N 43°24' E 004°59'2 2.4
2015-Aug-28 22:34N 43°24' E 004°56'4 3.3
2015-Aug-28 21:17N 43°25' E 004°51'0 0.0
2015-Aug-28 20:26N 43°25' E 004°51'0 0.0
2015-Aug-28 19:32N 43°25' E 004°51'0 0.0
2015-Aug-28 18:29N 43°25' E 004°51'0 0.0
2015-Aug-28 17:32N 43°25' E 004°51'1 0.6
2015-Aug-28 15:33N 43°24' E 004°52'19 9.0
2015-Aug-28 13:30N 43°20' E 005°17'3 1.6
2015-Aug-28 11:26N 43°19' E 005°21'0 0.0
2015-Aug-28 09:32N 43°19' E 005°21'0 0.2
2015-Aug-28 07:20N 43°19' E 005°22'0 0.1
2015-Aug-28 06:14N 43°19' E 005°22'14 7.9
2015-Aug-28 04:28N 43°18' E 005°02'6 6.7
2015-Aug-28 03:32N 43°24' E 004°59'0 0.0
2015-Aug-28 02:32N 43°24' E 004°59'0 0.0
2015-Aug-28 01:32N 43°24' E 004°59'0 0.0
2015-Aug-28 00:32N 43°24' E 004°59'0 0.0
2015-Aug-27 23:32N 43°24' E 004°59'0 0.0
2015-Aug-27 22:32N 43°24' E 004°59'0 0.0
2015-Aug-27 21:32N 43°24' E 004°59'0 0.0
2015-Aug-27 20:32N 43°24' E 004°59'0 0.0
2015-Aug-27 19:32N 43°24' E 004°59'0 0.0
2015-Aug-27 18:32N 43°24' E 004°59'0 0.0
2015-Aug-27 17:32N 43°24' E 004°59'0 0.0
2015-Aug-27 16:32N 43°24' E 004°59'1 1.2
2015-Aug-27 15:33N 43°23' E 004°58'5 2.2
2015-Aug-27 13:11N 43°25' E 004°51'0 0.0
2015-Aug-27 12:32N 43°25' E 004°51'0 0.0
2015-Aug-27 11:11N 43°25' E 004°51'0 0.0
2015-Aug-27 10:29N 43°25' E 004°51'0 0.0
2015-Aug-27 09:23N 43°25' E 004°51'0 0.0
2015-Aug-27 08:17N 43°25' E 004°51'0 0.0
2015-Aug-27 07:29N 43°25' E 004°51'0 0.0
2015-Aug-27 06:32N 43°25' E 004°51'0 0.0
2015-Aug-27 05:11N 43°25' E 004°51'4 6.2
2015-Aug-27 04:33N 43°24' E 004°56'2 2.5
2015-Aug-27 03:33N 43°24' E 004°59'0 0.0
2015-Aug-27 02:33N 43°24' E 004°59'0 0.0
2015-Aug-27 01:33N 43°24' E 004°59'0 0.0
2015-Aug-27 00:33N 43°24' E 004°59'0 0.0
2015-Aug-26 23:33N 43°24' E 004°59'0 0.0
2015-Aug-26 22:33N 43°24' E 004°59'0 0.0
2015-Aug-26 21:33N 43°24' E 004°59'0 0.0
2015-Aug-26 20:30N 43°24' E 004°59'0 0.0
2015-Aug-26 19:33N 43°24' E 004°59'0 0.0
2015-Aug-26 18:31N 43°24' E 004°59'0 0.0
2015-Aug-26 17:32N 43°24' E 004°59'0 0.0
2015-Aug-26 16:32N 43°24' E 004°59'1 0.5
2015-Aug-26 15:32N 43°24' E 004°59'0 0.0
2015-Aug-26 14:33N 43°24' E 004°59'0 0.0
2015-Aug-26 13:33N 43°24' E 004°59'0 0.0
2015-Aug-26 12:33N 43°24' E 004°59'0 0.0
2015-Aug-26 11:33N 43°24' E 004°59'0 0.0
2015-Aug-26 10:33N 43°24' E 004°59'0 0.0
2015-Aug-26 09:33N 43°24' E 004°59'0 0.0
2015-Aug-26 08:33N 43°24' E 004°59'0 0.0
2015-Aug-26 07:33N 43°24' E 004°59'0 0.0
2015-Aug-26 06:33N 43°24' E 004°59'0 0.0
2015-Aug-26 05:33N 43°24' E 004°59'0 0.0
2015-Aug-26 04:33N 43°24' E 004°59'0 0.0
2015-Aug-26 03:33N 43°24' E 004°59'0 0.0
2015-Aug-26 02:33N 43°24' E 004°59'0 0.0
2015-Aug-26 01:33N 43°24' E 004°59'0 0.0
2015-Aug-26 00:33N 43°24' E 004°59'0 0.0
2015-Aug-25 23:33N 43°24' E 004°59'0 0.0
2015-Aug-25 22:33N 43°24' E 004°59'0 0.0
2015-Aug-25 21:33N 43°24' E 004°59'0 0.0
2015-Aug-25 20:33N 43°24' E 004°59'0 0.0
2015-Aug-25 19:33N 43°24' E 004°59'0 0.0
2015-Aug-25 18:33N 43°24' E 004°59'0 0.0
2015-Aug-25 17:33N 43°24' E 004°59'0 0.0
2015-Aug-25 16:33N 43°24' E 004°59'0 0.0
2015-Aug-25 15:33N 43°24' E 004°59'0 0.0
2015-Aug-25 14:33N 43°24' E 004°59'0 0.0
2015-Aug-25 13:30N 43°24' E 004°59'0 0.0
2015-Aug-25 12:33N 43°24' E 004°59'0 0.0
2015-Aug-25 11:33N 43°24' E 004°59'0 0.0
2015-Aug-25 10:33N 43°24' E 004°59'0 0.0
2015-Aug-25 09:33N 43°24' E 004°59'0 0.0
2015-Aug-25 08:33N 43°24' E 004°59'0 0.0
2015-Aug-25 07:33N 43°24' E 004°59'0 0.0
2015-Aug-25 06:33N 43°24' E 004°59'0 0.0
2015-Aug-25 05:33N 43°24' E 004°59'0 0.0
2015-Aug-25 04:33N 43°24' E 004°59'0 0.0
2015-Aug-25 03:33N 43°24' E 004°59'0 0.0
2015-Aug-25 02:33N 43°24' E 004°59'0 0.0
2015-Aug-25 01:33N 43°24' E 004°59'0 0.0
2015-Aug-25 00:33N 43°24' E 004°59'0 0.0
2015-Aug-24 23:33N 43°24' E 004°59'0 0.0
2015-Aug-24 22:33N 43°24' E 004°59'0 0.0
2015-Aug-24 21:33N 43°24' E 004°59'0 0.0
2015-Aug-24 20:33N 43°24' E 004°59'0 0.0
2015-Aug-24 19:33N 43°24' E 004°59'0 0.0
2015-Aug-24 18:33N 43°24' E 004°59'0 0.0
2015-Aug-24 17:32N 43°24' E 004°59'0 0.0
2015-Aug-24 16:33N 43°24' E 004°59'  

Dump ship's entire track history